Maldives Meteorological Service

SYNOP

Station Code SYNOP
43555
AAXX 20094 43555 41450 10711 10305 20204 30119 40121 70500 81101 333 58009 81818=
43533
AAXX 20094 43533 41450 70506 10291 20213 30123 40125 70542 82208 333 58009 82818 87275=
43577
AAXX 20034 43577 41456 70208 10270 20218 30140 40142 70522 8117/ 333 20259 58010 81819 87362 555 10109=
43588
AAXX 20094 43588 41450 70206 10294 20239 30114 40115 70522 83238 333 58008 83818 87277=
43599
AAXX 20034 43599 41450 79902 10260 20249 30137 40139 70522 82232 333 20232 58014 82818 85361555 10368=
Last Updated : 2019-01-20 08:02:05